sensor_id;sensor_type;location;lat;lon;timestamp;P1;durP1;ratioP1;P2;durP2;ratioP2
5167;SDS011;2603;48.918;8.980;2022-07-29T00:01:39;6.33;;;4.50;;
5167;SDS011;2603;48.918;8.980;2022-07-29T00:04:05;7.13;;;4.73;;
5167;SDS011;2603;48.918;8.980;2022-07-29T00:06:32;8.10;;;5.77;;
5167;SDS011;2603;48.918;8.980;2022-07-29T00:09:00;8.63;;;5.43;;
5167;SDS011;2603;48.918;8.980;2022-07-29T00:11:26;13.57;;;6.87;;
5167;SDS011;2603;48.918;8.980;2022-07-29T00:13:53;9.20;;;5.37;;
5167;SDS011;2603;48.918;8.980;2022-07-29T00:16:20;7.27;;;5.33;;
5167;SDS011;2603;48.918;8.980;2022-07-29T00:18:47;10.53;;;5.60;;
5167;SDS011;2603;48.918;8.980;2022-07-29T00:21:13;16.70;;;5.40;;
5167;SDS011;2603;48.918;8.980;2022-07-29T00:23:40;5.87;;;4.83;;
5167;SDS011;2603;48.918;8.980;2022-07-29T00:26:08;12.20;;;5.97;;
5167;SDS011;2603;48.918;8.980;2022-07-29T00:28:35;8.77;;;4.93;;
5167;SDS011;2603;48.918;8.980;2022-07-29T00:31:02;10.03;;;6.10;;
5167;SDS011;2603;48.918;8.980;2022-07-29T00:33:28;9.17;;;6.07;;
5167;SDS011;2603;48.918;8.980;2022-07-29T00:35:55;10.00;;;6.73;;
5167;SDS011;2603;48.918;8.980;2022-07-29T00:38:21;8.43;;;6.30;;
5167;SDS011;2603;48.918;8.980;2022-07-29T00:40:47;10.07;;;6.10;;
5167;SDS011;2603;48.918;8.980;2022-07-29T00:43:15;12.23;;;5.70;;
5167;SDS011;2603;48.918;8.980;2022-07-29T00:45:43;7.83;;;5.30;;
5167;SDS011;2603;48.918;8.980;2022-07-29T00:48:09;11.60;;;5.97;;
5167;SDS011;2603;48.918;8.980;2022-07-29T00:50:36;10.60;;;5.97;;
5167;SDS011;2603;48.918;8.980;2022-07-29T00:53:03;7.60;;;5.63;;
5167;SDS011;2603;48.918;8.980;2022-07-29T00:55:32;7.30;;;5.53;;
5167;SDS011;2603;48.918;8.980;2022-07-29T00:57:58;13.23;;;6.47;;
5167;SDS011;2603;48.918;8.980;2022-07-29T01:00:27;10.07;;;5.80;;
5167;SDS011;2603;48.918;8.980;2022-07-29T01:02:55;8.00;;;5.87;;
5167;SDS011;2603;48.918;8.980;2022-07-29T01:05:21;7.30;;;4.80;;
5167;SDS011;2603;48.918;8.980;2022-07-29T01:07:51;16.03;;;6.10;;
5167;SDS011;2603;48.918;8.980;2022-07-29T01:10:19;9.50;;;5.73;;
5167;SDS011;2603;48.918;8.980;2022-07-29T01:12:47;7.50;;;5.60;;
5167;SDS011;2603;48.918;8.980;2022-07-29T01:15:15;8.80;;;5.60;;
5167;SDS011;2603;48.918;8.980;2022-07-29T01:17:44;12.87;;;5.90;;
5167;SDS011;2603;48.918;8.980;2022-07-29T01:20:17;14.47;;;5.63;;
5167;SDS011;2603;48.918;8.980;2022-07-29T01:23:07;10.07;;;5.87;;
5167;SDS011;2603;48.918;8.980;2022-07-29T01:25:49;8.77;;;5.80;;
5167;SDS011;2603;48.918;8.980;2022-07-29T01:28:43;10.00;;;5.20;;
5167;SDS011;2603;48.918;8.980;2022-07-29T01:31:15;10.30;;;6.27;;
5167;SDS011;2603;48.918;8.980;2022-07-29T01:33:43;14.87;;;6.07;;
5167;SDS011;2603;48.918;8.980;2022-07-29T01:36:16;7.57;;;5.13;;
5167;SDS011;2603;48.918;8.980;2022-07-29T01:38:44;11.00;;;6.73;;
5167;SDS011;2603;48.918;8.980;2022-07-29T01:41:14;9.97;;;6.27;;
5167;SDS011;2603;48.918;8.980;2022-07-29T01:43:44;8.50;;;6.93;;
5167;SDS011;2603;48.918;8.980;2022-07-29T01:46:17;9.73;;;6.70;;
5167;SDS011;2603;48.918;8.980;2022-07-29T01:48:47;8.13;;;5.97;;
5167;SDS011;2603;48.918;8.980;2022-07-29T01:51:18;12.73;;;7.10;;
5167;SDS011;2603;48.918;8.980;2022-07-29T01:53:46;11.83;;;7.20;;
5167;SDS011;2603;48.918;8.980;2022-07-29T01:56:14;11.77;;;6.80;;
5167;SDS011;2603;48.918;8.980;2022-07-29T01:58:44;10.77;;;7.97;;
5167;SDS011;2603;48.918;8.980;2022-07-29T02:01:11;9.47;;;7.50;;
5167;SDS011;2603;48.918;8.980;2022-07-29T02:03:39;12.60;;;6.67;;
5167;SDS011;2603;48.918;8.980;2022-07-29T02:06:09;8.93;;;6.93;;
5167;SDS011;2603;48.918;8.980;2022-07-29T02:08:37;13.13;;;6.67;;
5167;SDS011;2603;48.918;8.980;2022-07-29T02:11:04;16.03;;;8.20;;
5167;SDS011;2603;48.918;8.980;2022-07-29T02:13:33;8.67;;;6.73;;
5167;SDS011;2603;48.918;8.980;2022-07-29T02:16:02;9.67;;;6.70;;
5167;SDS011;2603;48.918;8.980;2022-07-29T02:18:32;10.57;;;7.40;;
5167;SDS011;2603;48.918;8.980;2022-07-29T02:20:59;15.73;;;6.53;;
5167;SDS011;2603;48.918;8.980;2022-07-29T02:23:27;8.70;;;7.20;;
5167;SDS011;2603;48.918;8.980;2022-07-29T02:25:55;10.03;;;6.90;;
5167;SDS011;2603;48.918;8.980;2022-07-29T02:28:24;16.87;;;7.43;;
5167;SDS011;2603;48.918;8.980;2022-07-29T02:30:53;12.00;;;7.47;;
5167;SDS011;2603;48.918;8.980;2022-07-29T02:33:22;8.77;;;7.10;;
5167;SDS011;2603;48.918;8.980;2022-07-29T02:35:49;13.60;;;8.27;;
5167;SDS011;2603;48.918;8.980;2022-07-29T02:38:16;13.63;;;6.73;;
5167;SDS011;2603;48.918;8.980;2022-07-29T02:41:03;10.30;;;6.83;;
5167;SDS011;2603;48.918;8.980;2022-07-29T02:43:33;17.30;;;8.77;;
5167;SDS011;2603;48.918;8.980;2022-07-29T02:46:00;13.07;;;8.00;;
5167;SDS011;2603;48.918;8.980;2022-07-29T02:48:32;8.60;;;7.33;;
5167;SDS011;2603;48.918;8.980;2022-07-29T02:51:04;13.20;;;7.80;;
5167;SDS011;2603;48.918;8.980;2022-07-29T02:53:33;10.40;;;7.43;;
5167;SDS011;2603;48.918;8.980;2022-07-29T02:56:00;10.33;;;7.40;;
5167;SDS011;2603;48.918;8.980;2022-07-29T02:58:31;12.00;;;8.30;;
5167;SDS011;2603;48.918;8.980;2022-07-29T03:00:59;15.30;;;8.83;;
5167;SDS011;2603;48.918;8.980;2022-07-29T03:03:29;9.50;;;8.07;;
5167;SDS011;2603;48.918;8.980;2022-07-29T03:05:59;12.30;;;8.30;;
5167;SDS011;2603;48.918;8.980;2022-07-29T03:08:27;14.83;;;7.83;;
5167;SDS011;2603;48.918;8.980;2022-07-29T03:10:54;12.23;;;8.80;;
5167;SDS011;2603;48.918;8.980;2022-07-29T03:13:21;14.00;;;7.47;;
5167;SDS011;2603;48.918;8.980;2022-07-29T03:15:48;11.60;;;8.57;;
5167;SDS011;2603;48.918;8.980;2022-07-29T03:18:15;12.50;;;8.40;;
5167;SDS011;2603;48.918;8.980;2022-07-29T03:20:43;19.10;;;8.80;;
5167;SDS011;2603;48.918;8.980;2022-07-29T03:23:11;17.20;;;7.63;;
5167;SDS011;2603;48.918;8.980;2022-07-29T03:25:37;10.80;;;8.63;;
5167;SDS011;2603;48.918;8.980;2022-07-29T03:28:04;12.63;;;8.37;;
5167;SDS011;2603;48.918;8.980;2022-07-29T03:30:31;15.40;;;9.50;;
5167;SDS011;2603;48.918;8.980;2022-07-29T03:32:57;11.37;;;8.13;;
5167;SDS011;2603;48.918;8.980;2022-07-29T03:35:24;10.80;;;7.77;;
5167;SDS011;2603;48.918;8.980;2022-07-29T03:37:52;10.50;;;7.90;;
5167;SDS011;2603;48.918;8.980;2022-07-29T03:40:20;21.80;;;9.53;;
5167;SDS011;2603;48.918;8.980;2022-07-29T03:42:48;13.17;;;8.37;;
5167;SDS011;2603;48.918;8.980;2022-07-29T03:45:17;16.10;;;9.30;;
5167;SDS011;2603;48.918;8.980;2022-07-29T03:47:45;10.47;;;7.43;;
5167;SDS011;2603;48.918;8.980;2022-07-29T03:50:15;15.20;;;8.53;;
5167;SDS011;2603;48.918;8.980;2022-07-29T03:52:44;13.93;;;9.00;;
5167;SDS011;2603;48.918;8.980;2022-07-29T03:55:13;14.03;;;9.67;;
5167;SDS011;2603;48.918;8.980;2022-07-29T03:57:40;10.20;;;7.90;;
5167;SDS011;2603;48.918;8.980;2022-07-29T04:00:07;13.93;;;8.27;;
5167;SDS011;2603;48.918;8.980;2022-07-29T04:02:35;11.00;;;8.57;;
5167;SDS011;2603;48.918;8.980;2022-07-29T04:05:03;16.07;;;10.50;;
5167;SDS011;2603;48.918;8.980;2022-07-29T04:07:30;11.97;;;8.40;;
5167;SDS011;2603;48.918;8.980;2022-07-29T04:09:57;12.50;;;8.97;;
5167;SDS011;2603;48.918;8.980;2022-07-29T04:12:25;14.90;;;9.40;;
5167;SDS011;2603;48.918;8.980;2022-07-29T04:15:00;14.97;;;8.57;;
5167;SDS011;2603;48.918;8.980;2022-07-29T04:17:27;14.10;;;8.87;;
5167;SDS011;2603;48.918;8.980;2022-07-29T04:19:54;13.20;;;8.00;;
5167;SDS011;2603;48.918;8.980;2022-07-29T04:22:20;12.90;;;7.57;;
5167;SDS011;2603;48.918;8.980;2022-07-29T04:24:47;18.70;;;7.87;;
5167;SDS011;2603;48.918;8.980;2022-07-29T04:27:13;19.63;;;8.13;;
5167;SDS011;2603;48.918;8.980;2022-07-29T04:29:41;11.30;;;8.47;;
5167;SDS011;2603;48.918;8.980;2022-07-29T04:32:08;17.00;;;7.73;;
5167;SDS011;2603;48.918;8.980;2022-07-29T04:34:34;9.17;;;6.57;;
5167;SDS011;2603;48.918;8.980;2022-07-29T04:37:01;10.73;;;7.80;;
5167;SDS011;2603;48.918;8.980;2022-07-29T04:39:28;9.10;;;6.53;;
5167;SDS011;2603;48.918;8.980;2022-07-29T04:41:54;11.20;;;7.53;;
5167;SDS011;2603;48.918;8.980;2022-07-29T04:44:21;9.83;;;6.97;;
5167;SDS011;2603;48.918;8.980;2022-07-29T04:46:49;11.27;;;7.33;;
5167;SDS011;2603;48.918;8.980;2022-07-29T04:49:15;11.40;;;7.00;;
5167;SDS011;2603;48.918;8.980;2022-07-29T04:51:42;9.50;;;7.40;;
5167;SDS011;2603;48.918;8.980;2022-07-29T04:54:08;10.30;;;7.50;;
5167;SDS011;2603;48.918;8.980;2022-07-29T04:56:35;14.10;;;7.17;;
5167;SDS011;2603;48.918;8.980;2022-07-29T04:59:01;8.90;;;6.40;;
5167;SDS011;2603;48.918;8.980;2022-07-29T05:01:28;7.97;;;5.20;;
5167;SDS011;2603;48.918;8.980;2022-07-29T05:03:56;14.67;;;6.90;;
5167;SDS011;2603;48.918;8.980;2022-07-29T05:06:23;6.67;;;5.33;;
5167;SDS011;2603;48.918;8.980;2022-07-29T05:08:50;14.07;;;6.37;;
5167;SDS011;2603;48.918;8.980;2022-07-29T05:11:16;8.77;;;5.23;;
5167;SDS011;2603;48.918;8.980;2022-07-29T05:13:43;10.30;;;5.63;;
5167;SDS011;2603;48.918;8.980;2022-07-29T05:16:10;6.50;;;4.47;;
5167;SDS011;2603;48.918;8.980;2022-07-29T05:18:36;10.23;;;5.33;;
5167;SDS011;2603;48.918;8.980;2022-07-29T05:21:04;7.90;;;5.00;;
5167;SDS011;2603;48.918;8.980;2022-07-29T05:23:31;8.17;;;5.17;;
5167;SDS011;2603;48.918;8.980;2022-07-29T05:25:57;8.70;;;5.97;;
5167;SDS011;2603;48.918;8.980;2022-07-29T05:28:24;13.13;;;5.67;;
5167;SDS011;2603;48.918;8.980;2022-07-29T05:30:50;7.63;;;4.87;;
5167;SDS011;2603;48.918;8.980;2022-07-29T05:33:17;10.23;;;5.33;;
5167;SDS011;2603;48.918;8.980;2022-07-29T05:35:43;8.60;;;5.50;;
5167;SDS011;2603;48.918;8.980;2022-07-29T05:38:11;9.00;;;5.80;;
5167;SDS011;2603;48.918;8.980;2022-07-29T05:40:38;9.83;;;5.63;;
5167;SDS011;2603;48.918;8.980;2022-07-29T05:43:04;8.77;;;5.43;;
5167;SDS011;2603;48.918;8.980;2022-07-29T05:45:31;12.07;;;5.67;;
5167;SDS011;2603;48.918;8.980;2022-07-29T05:47:57;9.77;;;6.00;;
5167;SDS011;2603;48.918;8.980;2022-07-29T05:50:24;11.63;;;6.50;;
5167;SDS011;2603;48.918;8.980;2022-07-29T05:52:50;8.60;;;6.20;;
5167;SDS011;2603;48.918;8.980;2022-07-29T05:55:18;7.63;;;5.57;;
5167;SDS011;2603;48.918;8.980;2022-07-29T05:57:45;9.13;;;5.70;;
5167;SDS011;2603;48.918;8.980;2022-07-29T06:00:12;11.37;;;6.07;;
5167;SDS011;2603;48.918;8.980;2022-07-29T06:02:39;10.40;;;5.40;;
5167;SDS011;2603;48.918;8.980;2022-07-29T06:05:05;8.40;;;5.40;;
5167;SDS011;2603;48.918;8.980;2022-07-29T06:07:33;6.90;;;5.63;;
5167;SDS011;2603;48.918;8.980;2022-07-29T06:10:00;9.10;;;5.50;;
5167;SDS011;2603;48.918;8.980;2022-07-29T06:12:28;7.03;;;5.47;;
5167;SDS011;2603;48.918;8.980;2022-07-29T06:14:55;9.80;;;5.73;;
5167;SDS011;2603;48.918;8.980;2022-07-29T06:17:21;6.50;;;5.17;;
5167;SDS011;2603;48.918;8.980;2022-07-29T06:19:48;72.53;;;15.43;;
5167;SDS011;2603;48.918;8.980;2022-07-29T06:22:15;13.80;;;5.50;;
5167;SDS011;2603;48.918;8.980;2022-07-29T06:24:42;11.80;;;5.00;;
5167;SDS011;2603;48.918;8.980;2022-07-29T06:27:09;11.83;;;5.60;;
5167;SDS011;2603;48.918;8.980;2022-07-29T06:29:37;7.17;;;5.30;;
5167;SDS011;2603;48.918;8.980;2022-07-29T06:32:04;8.40;;;5.03;;
5167;SDS011;2603;48.918;8.980;2022-07-29T06:34:32;9.07;;;4.90;;
5167;SDS011;2603;48.918;8.980;2022-07-29T06:36:59;6.70;;;4.13;;
5167;SDS011;2603;48.918;8.980;2022-07-29T06:39:27;14.87;;;4.33;;
5167;SDS011;2603;48.918;8.980;2022-07-29T06:41:54;9.73;;;3.43;;
5167;SDS011;2603;48.918;8.980;2022-07-29T06:44:23;5.77;;;3.87;;
5167;SDS011;2603;48.918;8.980;2022-07-29T06:46:51;6.73;;;3.30;;
5167;SDS011;2603;48.918;8.980;2022-07-29T06:49:19;8.50;;;4.57;;
5167;SDS011;2603;48.918;8.980;2022-07-29T06:51:46;4.10;;;2.60;;
5167;SDS011;2603;48.918;8.980;2022-07-29T06:54:13;5.03;;;3.90;;
5167;SDS011;2603;48.918;8.980;2022-07-29T06:56:40;5.10;;;3.47;;
5167;SDS011;2603;48.918;8.980;2022-07-29T06:59:08;3.90;;;3.17;;
5167;SDS011;2603;48.918;8.980;2022-07-29T07:01:36;6.87;;;3.40;;
5167;SDS011;2603;48.918;8.980;2022-07-29T07:04:04;7.57;;;3.80;;
5167;SDS011;2603;48.918;8.980;2022-07-29T07:06:31;3.60;;;2.63;;
5167;SDS011;2603;48.918;8.980;2022-07-29T07:08:57;5.93;;;3.27;;
5167;SDS011;2603;48.918;8.980;2022-07-29T07:11:24;5.27;;;3.33;;
5167;SDS011;2603;48.918;8.980;2022-07-29T07:13:50;4.17;;;2.73;;
5167;SDS011;2603;48.918;8.980;2022-07-29T07:16:17;16.33;;;3.97;;
5167;SDS011;2603;48.918;8.980;2022-07-29T07:18:44;5.10;;;2.97;;
5167;SDS011;2603;48.918;8.980;2022-07-29T07:21:12;5.97;;;3.47;;
5167;SDS011;2603;48.918;8.980;2022-07-29T07:23:39;5.13;;;3.50;;
5167;SDS011;2603;48.918;8.980;2022-07-29T07:26:05;4.83;;;3.00;;
5167;SDS011;2603;48.918;8.980;2022-07-29T07:28:32;6.13;;;3.40;;
5167;SDS011;2603;48.918;8.980;2022-07-29T07:30:58;6.93;;;3.00;;
5167;SDS011;2603;48.918;8.980;2022-07-29T07:33:25;4.23;;;3.20;;
5167;SDS011;2603;48.918;8.980;2022-07-29T07:35:52;5.27;;;3.30;;
5167;SDS011;2603;48.918;8.980;2022-07-29T07:38:20;5.77;;;3.33;;
5167;SDS011;2603;48.918;8.980;2022-07-29T07:40:46;8.03;;;2.73;;
5167;SDS011;2603;48.918;8.980;2022-07-29T07:43:13;6.97;;;3.07;;
5167;SDS011;2603;48.918;8.980;2022-07-29T07:45:39;8.17;;;3.23;;
5167;SDS011;2603;48.918;8.980;2022-07-29T07:48:06;7.53;;;3.33;;
5167;SDS011;2603;48.918;8.980;2022-07-29T07:50:35;5.83;;;3.20;;
5167;SDS011;2603;48.918;8.980;2022-07-29T07:53:01;6.27;;;4.00;;
5167;SDS011;2603;48.918;8.980;2022-07-29T07:55:29;5.03;;;2.90;;
5167;SDS011;2603;48.918;8.980;2022-07-29T07:57:56;5.63;;;3.20;;
5167;SDS011;2603;48.918;8.980;2022-07-29T08:00:22;4.90;;;3.50;;
5167;SDS011;2603;48.918;8.980;2022-07-29T08:02:49;7.47;;;2.37;;
5167;SDS011;2603;48.918;8.980;2022-07-29T08:05:16;5.27;;;3.20;;
5167;SDS011;2603;48.918;8.980;2022-07-29T08:07:43;10.43;;;3.73;;
5167;SDS011;2603;48.918;8.980;2022-07-29T08:10:11;7.20;;;3.00;;
5167;SDS011;2603;48.918;8.980;2022-07-29T08:12:39;8.30;;;2.63;;
5167;SDS011;2603;48.918;8.980;2022-07-29T08:15:06;9.77;;;2.63;;
5167;SDS011;2603;48.918;8.980;2022-07-29T08:17:33;12.13;;;4.17;;
5167;SDS011;2603;48.918;8.980;2022-07-29T08:20:00;5.27;;;2.60;;
5167;SDS011;2603;48.918;8.980;2022-07-29T08:22:27;4.77;;;3.00;;
5167;SDS011;2603;48.918;8.980;2022-07-29T08:24:53;8.07;;;2.87;;
5167;SDS011;2603;48.918;8.980;2022-07-29T08:27:21;5.13;;;3.30;;
5167;SDS011;2603;48.918;8.980;2022-07-29T08:29:50;5.17;;;2.80;;
5167;SDS011;2603;48.918;8.980;2022-07-29T08:32:17;8.53;;;3.07;;
5167;SDS011;2603;48.918;8.980;2022-07-29T08:34:43;12.33;;;2.90;;
5167;SDS011;2603;48.918;8.980;2022-07-29T08:37:11;5.27;;;2.90;;
5167;SDS011;2603;48.918;8.980;2022-07-29T08:39:38;12.33;;;3.20;;
5167;SDS011;2603;48.918;8.980;2022-07-29T08:42:05;8.80;;;2.87;;
5167;SDS011;2603;48.918;8.980;2022-07-29T08:44:32;10.50;;;2.97;;
5167;SDS011;2603;48.918;8.980;2022-07-29T08:47:00;4.20;;;2.60;;
5167;SDS011;2603;48.918;8.980;2022-07-29T08:49:27;5.80;;;2.97;;
5167;SDS011;2603;48.918;8.980;2022-07-29T08:51:53;8.30;;;3.20;;
5167;SDS011;2603;48.918;8.980;2022-07-29T08:54:21;8.20;;;3.27;;
5167;SDS011;2603;48.918;8.980;2022-07-29T08:56:51;9.37;;;3.00;;
5167;SDS011;2603;48.918;8.980;2022-07-29T08:59:19;5.80;;;2.97;;
5167;SDS011;2603;48.918;8.980;2022-07-29T09:01:46;9.73;;;2.77;;
5167;SDS011;2603;48.918;8.980;2022-07-29T09:04:14;15.53;;;3.07;;
5167;SDS011;2603;48.918;8.980;2022-07-29T09:06:43;4.50;;;2.73;;
5167;SDS011;2603;48.918;8.980;2022-07-29T09:09:11;3.30;;;2.60;;
5167;SDS011;2603;48.918;8.980;2022-07-29T09:11:38;8.97;;;2.83;;
5167;SDS011;2603;48.918;8.980;2022-07-29T09:14:05;7.60;;;2.73;;
5167;SDS011;2603;48.918;8.980;2022-07-29T09:19:25;5.57;;;3.27;;
5167;SDS011;2603;48.918;8.980;2022-07-29T09:21:54;4.77;;;3.00;;
5167;SDS011;2603;48.918;8.980;2022-07-29T09:24:25;10.33;;;2.83;;
5167;SDS011;2603;48.918;8.980;2022-07-29T09:27:10;4.50;;;2.43;;
5167;SDS011;2603;48.918;8.980;2022-07-29T09:29:45;5.63;;;2.60;;
5167;SDS011;2603;48.918;8.980;2022-07-29T09:32:12;5.97;;;2.80;;
5167;SDS011;2603;48.918;8.980;2022-07-29T09:34:40;4.90;;;3.00;;
5167;SDS011;2603;48.918;8.980;2022-07-29T09:37:06;3.70;;;2.50;;
5167;SDS011;2603;48.918;8.980;2022-07-29T09:39:33;4.60;;;2.77;;
5167;SDS011;2603;48.918;8.980;2022-07-29T09:42:09;8.13;;;3.03;;
5167;SDS011;2603;48.918;8.980;2022-07-29T09:44:46;4.40;;;3.00;;
5167;SDS011;2603;48.918;8.980;2022-07-29T09:47:14;4.67;;;2.67;;
5167;SDS011;2603;48.918;8.980;2022-07-29T09:49:52;7.00;;;2.40;;
5167;SDS011;2603;48.918;8.980;2022-07-29T09:52:20;9.77;;;2.83;;
5167;SDS011;2603;48.918;8.980;2022-07-29T09:54:47;5.03;;;2.43;;
5167;SDS011;2603;48.918;8.980;2022-07-29T09:57:23;12.63;;;2.50;;
5167;SDS011;2603;48.918;8.980;2022-07-29T09:59:58;3.83;;;2.17;;
5167;SDS011;2603;48.918;8.980;2022-07-29T10:02:29;3.80;;;2.27;;
5167;SDS011;2603;48.918;8.980;2022-07-29T10:04:58;3.83;;;2.60;;
5167;SDS011;2603;48.918;8.980;2022-07-29T10:07:25;6.00;;;2.50;;
5167;SDS011;2603;48.918;8.980;2022-07-29T10:09:52;4.50;;;2.30;;
5167;SDS011;2603;48.918;8.980;2022-07-29T10:12:20;6.23;;;2.70;;
5167;SDS011;2603;48.918;8.980;2022-07-29T10:14:47;4.30;;;2.27;;
5167;SDS011;2603;48.918;8.980;2022-07-29T10:17:14;6.13;;;2.33;;
5167;SDS011;2603;48.918;8.980;2022-07-29T10:19:42;9.50;;;2.40;;
5167;SDS011;2603;48.918;8.980;2022-07-29T10:22:10;3.60;;;1.90;;
5167;SDS011;2603;48.918;8.980;2022-07-29T10:24:37;7.70;;;2.20;;
5167;SDS011;2603;48.918;8.980;2022-07-29T10:27:05;6.90;;;2.23;;
5167;SDS011;2603;48.918;8.980;2022-07-29T10:29:32;4.50;;;2.57;;
5167;SDS011;2603;48.918;8.980;2022-07-29T10:32:07;4.10;;;2.80;;
5167;SDS011;2603;48.918;8.980;2022-07-29T10:34:50;5.93;;;1.90;;
5167;SDS011;2603;48.918;8.980;2022-07-29T10:37:33;4.10;;;2.53;;
5167;SDS011;2603;48.918;8.980;2022-07-29T10:40:08;4.00;;;2.13;;
5167;SDS011;2603;48.918;8.980;2022-07-29T10:42:59;4.43;;;1.70;;
5167;SDS011;2603;48.918;8.980;2022-07-29T10:45:34;9.60;;;2.70;;
5167;SDS011;2603;48.918;8.980;2022-07-29T10:48:03;6.90;;;2.57;;
5167;SDS011;2603;48.918;8.980;2022-07-29T10:53:20;11.60;;;2.67;;
5167;SDS011;2603;48.918;8.980;2022-07-29T10:55:46;9.97;;;2.57;;
5167;SDS011;2603;48.918;8.980;2022-07-29T10:58:16;4.90;;;2.37;;
5167;SDS011;2603;48.918;8.980;2022-07-29T11:00:43;3.60;;;2.27;;
5167;SDS011;2603;48.918;8.980;2022-07-29T11:06:08;8.33;;;2.17;;
5167;SDS011;2603;48.918;8.980;2022-07-29T11:08:39;5.83;;;2.80;;
5167;SDS011;2603;48.918;8.980;2022-07-29T11:14:01;5.10;;;2.20;;
5167;SDS011;2603;48.918;8.980;2022-07-29T11:16:57;5.60;;;3.00;;
5167;SDS011;2603;48.918;8.980;2022-07-29T11:19:25;5.10;;;2.53;;
5167;SDS011;2603;48.918;8.980;2022-07-29T11:21:51;5.23;;;2.43;;
5167;SDS011;2603;48.918;8.980;2022-07-29T11:24:20;5.03;;;1.87;;
5167;SDS011;2603;48.918;8.980;2022-07-29T11:27:09;7.00;;;2.20;;
5167;SDS011;2603;48.918;8.980;2022-07-29T11:29:38;8.60;;;2.23;;
5167;SDS011;2603;48.918;8.980;2022-07-29T11:32:09;5.50;;;2.67;;
5167;SDS011;2603;48.918;8.980;2022-07-29T11:34:37;7.17;;;2.10;;
5167;SDS011;2603;48.918;8.980;2022-07-29T11:37:21;2.63;;;1.70;;
5167;SDS011;2603;48.918;8.980;2022-07-29T11:42:47;15.50;;;2.23;;
5167;SDS011;2603;48.918;8.980;2022-07-29T11:45:15;5.87;;;2.23;;
5167;SDS011;2603;48.918;8.980;2022-07-29T11:47:47;6.00;;;2.23;;
5167;SDS011;2603;48.918;8.980;2022-07-29T11:50:16;8.50;;;2.27;;
5167;SDS011;2603;48.918;8.980;2022-07-29T11:52:44;8.80;;;2.33;;
5167;SDS011;2603;48.918;8.980;2022-07-29T11:55:12;5.53;;;2.17;;
5167;SDS011;2603;48.918;8.980;2022-07-29T11:57:49;5.97;;;2.53;;
5167;SDS011;2603;48.918;8.980;2022-07-29T12:00:22;3.77;;;2.37;;
5167;SDS011;2603;48.918;8.980;2022-07-29T12:02:49;5.53;;;2.20;;
5167;SDS011;2603;48.918;8.980;2022-07-29T12:05:16;6.93;;;2.10;;
5167;SDS011;2603;48.918;8.980;2022-07-29T12:07:43;6.20;;;2.00;;
5167;SDS011;2603;48.918;8.980;2022-07-29T12:10:10;3.33;;;1.80;;
5167;SDS011;2603;48.918;8.980;2022-07-29T12:12:37;7.67;;;2.70;;
5167;SDS011;2603;48.918;8.980;2022-07-29T12:15:15;3.83;;;2.27;;
5167;SDS011;2603;48.918;8.980;2022-07-29T12:17:46;5.90;;;2.50;;
5167;SDS011;2603;48.918;8.980;2022-07-29T12:20:13;6.93;;;2.00;;
5167;SDS011;2603;48.918;8.980;2022-07-29T12:22:42;7.73;;;2.83;;
5167;SDS011;2603;48.918;8.980;2022-07-29T12:25:09;3.37;;;2.30;;
5167;SDS011;2603;48.918;8.980;2022-07-29T12:27:39;4.30;;;2.20;;
5167;SDS011;2603;48.918;8.980;2022-07-29T12:30:07;5.10;;;2.63;;
5167;SDS011;2603;48.918;8.980;2022-07-29T12:32:37;4.63;;;2.50;;
5167;SDS011;2603;48.918;8.980;2022-07-29T12:35:05;4.03;;;2.30;;
5167;SDS011;2603;48.918;8.980;2022-07-29T12:37:33;4.10;;;2.40;;
5167;SDS011;2603;48.918;8.980;2022-07-29T12:40:00;6.37;;;3.20;;
5167;SDS011;2603;48.918;8.980;2022-07-29T12:42:27;4.73;;;2.67;;
5167;SDS011;2603;48.918;8.980;2022-07-29T12:44:53;5.13;;;2.20;;
5167;SDS011;2603;48.918;8.980;2022-07-29T12:47:20;5.13;;;2.70;;
5167;SDS011;2603;48.918;8.980;2022-07-29T12:49:49;3.50;;;2.40;;
5167;SDS011;2603;48.918;8.980;2022-07-29T12:55:01;8.60;;;3.33;;
5167;SDS011;2603;48.918;8.980;2022-07-29T12:57:27;6.50;;;2.63;;
5167;SDS011;2603;48.918;8.980;2022-07-29T13:00:02;10.70;;;2.83;;
5167;SDS011;2603;48.918;8.980;2022-07-29T13:02:33;9.60;;;3.40;;
5167;SDS011;2603;48.918;8.980;2022-07-29T13:05:01;3.90;;;2.80;;
5167;SDS011;2603;48.918;8.980;2022-07-29T13:07:29;3.80;;;2.40;;
5167;SDS011;2603;48.918;8.980;2022-07-29T13:10:09;6.70;;;2.57;;
5167;SDS011;2603;48.918;8.980;2022-07-29T13:12:37;7.33;;;3.37;;
5167;SDS011;2603;48.918;8.980;2022-07-29T13:15:12;7.53;;;3.00;;
5167;SDS011;2603;48.918;8.980;2022-07-29T13:17:40;3.70;;;2.47;;
5167;SDS011;2603;48.918;8.980;2022-07-29T13:20:09;8.97;;;2.50;;
5167;SDS011;2603;48.918;8.980;2022-07-29T13:22:39;5.37;;;2.23;;
5167;SDS011;2603;48.918;8.980;2022-07-29T13:25:09;4.77;;;1.83;;
5167;SDS011;2603;48.918;8.980;2022-07-29T13:27:36;11.87;;;2.17;;
5167;SDS011;2603;48.918;8.980;2022-07-29T13:30:05;4.07;;;2.37;;
5167;SDS011;2603;48.918;8.980;2022-07-29T13:32:33;4.63;;;2.27;;
5167;SDS011;2603;48.918;8.980;2022-07-29T13:35:02;10.67;;;2.93;;
5167;SDS011;2603;48.918;8.980;2022-07-29T13:37:32;3.70;;;1.40;;
5167;SDS011;2603;48.918;8.980;2022-07-29T13:39:59;7.33;;;1.53;;
5167;SDS011;2603;48.918;8.980;2022-07-29T13:42:28;3.80;;;1.80;;
5167;SDS011;2603;48.918;8.980;2022-07-29T13:44:54;4.27;;;1.53;;
5167;SDS011;2603;48.918;8.980;2022-07-29T13:47:21;3.60;;;1.73;;
5167;SDS011;2603;48.918;8.980;2022-07-29T13:49:48;17.27;;;2.20;;
5167;SDS011;2603;48.918;8.980;2022-07-29T13:52:14;6.07;;;1.70;;
5167;SDS011;2603;48.918;8.980;2022-07-29T13:54:43;6.20;;;1.70;;
5167;SDS011;2603;48.918;8.980;2022-07-29T13:57:10;2.70;;;1.60;;
5167;SDS011;2603;48.918;8.980;2022-07-29T13:59:36;5.47;;;1.53;;
5167;SDS011;2603;48.918;8.980;2022-07-29T14:02:03;7.43;;;1.80;;
5167;SDS011;2603;48.918;8.980;2022-07-29T14:04:30;3.50;;;1.67;;
5167;SDS011;2603;48.918;8.980;2022-07-29T14:06:57;2.87;;;1.67;;
5167;SDS011;2603;48.918;8.980;2022-07-29T14:09:23;3.40;;;2.23;;
5167;SDS011;2603;48.918;8.980;2022-07-29T14:11:51;8.23;;;2.00;;
5167;SDS011;2603;48.918;8.980;2022-07-29T14:14:18;5.20;;;1.93;;
5167;SDS011;2603;48.918;8.980;2022-07-29T14:16:45;4.17;;;1.80;;
5167;SDS011;2603;48.918;8.980;2022-07-29T14:19:12;4.10;;;1.67;;
5167;SDS011;2603;48.918;8.980;2022-07-29T14:21:38;3.53;;;1.53;;
5167;SDS011;2603;48.918;8.980;2022-07-29T14:24:06;5.30;;;1.70;;
5167;SDS011;2603;48.918;8.980;2022-07-29T14:26:32;3.50;;;1.73;;
5167;SDS011;2603;48.918;8.980;2022-07-29T14:29:00;5.83;;;1.87;;
5167;SDS011;2603;48.918;8.980;2022-07-29T14:31:27;6.73;;;1.77;;
5167;SDS011;2603;48.918;8.980;2022-07-29T14:33:54;6.27;;;1.90;;
5167;SDS011;2603;48.918;8.980;2022-07-29T14:36:20;4.63;;;1.43;;
5167;SDS011;2603;48.918;8.980;2022-07-29T14:38:47;2.53;;;1.40;;
5167;SDS011;2603;48.918;8.980;2022-07-29T14:41:13;3.53;;;1.30;;
5167;SDS011;2603;48.918;8.980;2022-07-29T14:43:40;2.80;;;1.30;;
5167;SDS011;2603;48.918;8.980;2022-07-29T14:46:08;3.30;;;1.47;;
5167;SDS011;2603;48.918;8.980;2022-07-29T14:48:35;3.00;;;1.40;;
5167;SDS011;2603;48.918;8.980;2022-07-29T14:51:01;4.20;;;1.50;;
5167;SDS011;2603;48.918;8.980;2022-07-29T14:53:28;5.63;;;1.60;;
5167;SDS011;2603;48.918;8.980;2022-07-29T14:55:54;5.13;;;2.03;;
5167;SDS011;2603;48.918;8.980;2022-07-29T14:58:21;4.33;;;1.60;;
5167;SDS011;2603;48.918;8.980;2022-07-29T15:00:48;4.23;;;1.50;;
5167;SDS011;2603;48.918;8.980;2022-07-29T15:03:16;1.67;;;1.10;;
5167;SDS011;2603;48.918;8.980;2022-07-29T15:05:42;2.53;;;1.60;;
5167;SDS011;2603;48.918;8.980;2022-07-29T15:08:09;2.30;;;1.20;;
5167;SDS011;2603;48.918;8.980;2022-07-29T15:10:35;5.60;;;1.00;;
5167;SDS011;2603;48.918;8.980;2022-07-29T15:13:02;2.47;;;1.30;;
5167;SDS011;2603;48.918;8.980;2022-07-29T15:15:29;1.77;;;1.20;;
5167;SDS011;2603;48.918;8.980;2022-07-29T15:17:55;2.37;;;1.20;;
5167;SDS011;2603;48.918;8.980;2022-07-29T15:20:24;3.33;;;1.27;;
5167;SDS011;2603;48.918;8.980;2022-07-29T15:22:52;8.57;;;1.50;;
5167;SDS011;2603;48.918;8.980;2022-07-29T15:25:20;12.17;;;8.33;;
5167;SDS011;2603;48.918;8.980;2022-07-29T15:27:47;5.77;;;2.23;;
5167;SDS011;2603;48.918;8.980;2022-07-29T15:30:14;5.27;;;3.03;;
5167;SDS011;2603;48.918;8.980;2022-07-29T15:32:42;11.97;;;7.70;;
5167;SDS011;2603;48.918;8.980;2022-07-29T15:35:08;5.87;;;1.77;;